< < Back
Terminal Aerodrome Forecast


Current Version              Previous Versions:   1  2  3  4  5  6  7  8  9  

Terminal Aerodrome Forecast

087
FTUS42 KFFC 261730
TAFMCN
TAF
KMCN 261730Z 2618/2718 25010KT P6SM SCT030
     FM262100 29012KT P6SM SCT045
     FM270100 31006KT P6SM SCT100
     FM271500 35008KT P6SM SCT045=

Latest METAR

191
SAUS80 KWBC 262100 RRA
MTRMCN
METAR KMCN 262053Z 27013G18KT 10SM FEW075 29/14 A2964 RMK AO2 SLP032
T02940144 56014 $


USA.gov is the U.S. government's official web portal to all federal, state and local government web resources and services.